sensor_id;sensor_type;location;lat;lon;timestamp;temperature;humidity
33831;DHT22;20137;48.834;8.732;2024-03-25T00:01:30;4.20;99.90
33831;DHT22;20137;48.834;8.732;2024-03-25T00:03:56;4.20;99.90
33831;DHT22;20137;48.834;8.732;2024-03-25T00:06:21;4.20;99.90
33831;DHT22;20137;48.834;8.732;2024-03-25T00:08:47;4.20;99.90
33831;DHT22;20137;48.834;8.732;2024-03-25T00:11:13;4.30;99.90
33831;DHT22;20137;48.834;8.732;2024-03-25T00:13:38;4.20;99.90
33831;DHT22;20137;48.834;8.732;2024-03-25T00:16:05;4.10;99.90
33831;DHT22;20137;48.834;8.732;2024-03-25T00:18:32;4.10;99.90
33831;DHT22;20137;48.834;8.732;2024-03-25T00:20:58;4.00;99.90
33831;DHT22;20137;48.834;8.732;2024-03-25T00:23:23;4.00;99.90
33831;DHT22;20137;48.834;8.732;2024-03-25T00:25:50;3.90;99.90
33831;DHT22;20137;48.834;8.732;2024-03-25T00:28:15;4.10;99.90
33831;DHT22;20137;48.834;8.732;2024-03-25T00:30:41;4.10;99.90
33831;DHT22;20137;48.834;8.732;2024-03-25T00:33:07;4.10;99.90
33831;DHT22;20137;48.834;8.732;2024-03-25T00:35:35;4.20;99.90
33831;DHT22;20137;48.834;8.732;2024-03-25T00:38:01;4.20;99.90
33831;DHT22;20137;48.834;8.732;2024-03-25T00:40:27;4.20;99.90
33831;DHT22;20137;48.834;8.732;2024-03-25T00:42:52;4.10;99.90
33831;DHT22;20137;48.834;8.732;2024-03-25T00:45:18;4.20;99.90
33831;DHT22;20137;48.834;8.732;2024-03-25T00:47:44;4.40;99.90
33831;DHT22;20137;48.834;8.732;2024-03-25T00:50:09;4.30;99.90
33831;DHT22;20137;48.834;8.732;2024-03-25T00:52:35;4.40;99.90
33831;DHT22;20137;48.834;8.732;2024-03-25T00:55:01;4.30;99.90
33831;DHT22;20137;48.834;8.732;2024-03-25T00:57:27;4.30;99.90
33831;DHT22;20137;48.834;8.732;2024-03-25T00:59:55;4.30;99.90
33831;DHT22;20137;48.834;8.732;2024-03-25T01:02:20;4.20;99.90
33831;DHT22;20137;48.834;8.732;2024-03-25T01:04:46;4.20;99.90
33831;DHT22;20137;48.834;8.732;2024-03-25T01:07:12;4.20;99.90
33831;DHT22;20137;48.834;8.732;2024-03-25T01:09:38;4.20;99.90
33831;DHT22;20137;48.834;8.732;2024-03-25T01:12:04;4.20;99.90
33831;DHT22;20137;48.834;8.732;2024-03-25T01:14:29;4.20;99.90
33831;DHT22;20137;48.834;8.732;2024-03-25T01:16:55;4.30;99.90
33831;DHT22;20137;48.834;8.732;2024-03-25T01:19:22;4.20;99.90
33831;DHT22;20137;48.834;8.732;2024-03-25T01:21:50;4.20;99.90
33831;DHT22;20137;48.834;8.732;2024-03-25T01:24:15;4.20;99.90
33831;DHT22;20137;48.834;8.732;2024-03-25T01:26:41;4.40;99.90
33831;DHT22;20137;48.834;8.732;2024-03-25T01:29:07;4.30;99.90
33831;DHT22;20137;48.834;8.732;2024-03-25T01:31:33;4.30;99.90
33831;DHT22;20137;48.834;8.732;2024-03-25T01:34:02;4.20;99.90
33831;DHT22;20137;48.834;8.732;2024-03-25T01:36:27;4.30;99.90
33831;DHT22;20137;48.834;8.732;2024-03-25T01:38:53;4.30;99.90
33831;DHT22;20137;48.834;8.732;2024-03-25T01:41:21;4.30;99.90
33831;DHT22;20137;48.834;8.732;2024-03-25T01:43:50;4.30;99.90
33831;DHT22;20137;48.834;8.732;2024-03-25T01:46:20;4.30;99.90
33831;DHT22;20137;48.834;8.732;2024-03-25T01:48:47;4.30;99.90
33831;DHT22;20137;48.834;8.732;2024-03-25T01:51:15;4.30;99.90
33831;DHT22;20137;48.834;8.732;2024-03-25T01:53:42;4.10;99.90
33831;DHT22;20137;48.834;8.732;2024-03-25T01:56:08;4.20;99.90
33831;DHT22;20137;48.834;8.732;2024-03-25T01:58:35;4.10;99.90
33831;DHT22;20137;48.834;8.732;2024-03-25T02:01:03;4.20;99.90
33831;DHT22;20137;48.834;8.732;2024-03-25T02:03:29;4.20;99.90
33831;DHT22;20137;48.834;8.732;2024-03-25T02:05:58;4.20;99.90
33831;DHT22;20137;48.834;8.732;2024-03-25T02:08:26;4.20;99.90
33831;DHT22;20137;48.834;8.732;2024-03-25T02:10:55;4.20;99.90
33831;DHT22;20137;48.834;8.732;2024-03-25T02:13:22;4.20;99.90
33831;DHT22;20137;48.834;8.732;2024-03-25T02:15:47;4.10;99.90
33831;DHT22;20137;48.834;8.732;2024-03-25T02:18:17;4.20;99.90
33831;DHT22;20137;48.834;8.732;2024-03-25T02:20:43;4.20;99.90
33831;DHT22;20137;48.834;8.732;2024-03-25T02:23:09;4.20;99.90
33831;DHT22;20137;48.834;8.732;2024-03-25T02:25:38;4.20;99.90
33831;DHT22;20137;48.834;8.732;2024-03-25T02:28:04;4.20;99.90
33831;DHT22;20137;48.834;8.732;2024-03-25T02:30:30;4.20;99.90
33831;DHT22;20137;48.834;8.732;2024-03-25T02:32:55;4.20;99.90
33831;DHT22;20137;48.834;8.732;2024-03-25T02:35:22;4.20;99.90
33831;DHT22;20137;48.834;8.732;2024-03-25T02:37:53;4.30;99.90
33831;DHT22;20137;48.834;8.732;2024-03-25T02:40:19;4.20;99.90
33831;DHT22;20137;48.834;8.732;2024-03-25T02:42:46;4.30;99.90
33831;DHT22;20137;48.834;8.732;2024-03-25T02:45:12;4.30;99.90
33831;DHT22;20137;48.834;8.732;2024-03-25T02:47:37;4.20;99.90
33831;DHT22;20137;48.834;8.732;2024-03-25T02:50:03;4.20;99.90
33831;DHT22;20137;48.834;8.732;2024-03-25T02:52:29;4.20;99.90
33831;DHT22;20137;48.834;8.732;2024-03-25T02:54:55;4.20;99.90
33831;DHT22;20137;48.834;8.732;2024-03-25T02:57:21;4.30;99.90
33831;DHT22;20137;48.834;8.732;2024-03-25T02:59:46;4.20;99.90
33831;DHT22;20137;48.834;8.732;2024-03-25T03:02:12;4.20;99.90
33831;DHT22;20137;48.834;8.732;2024-03-25T03:04:37;4.20;99.90
33831;DHT22;20137;48.834;8.732;2024-03-25T03:07:03;4.20;99.90
33831;DHT22;20137;48.834;8.732;2024-03-25T03:09:29;4.30;99.90
33831;DHT22;20137;48.834;8.732;2024-03-25T03:11:55;4.20;99.90
33831;DHT22;20137;48.834;8.732;2024-03-25T03:14:21;4.20;99.90
33831;DHT22;20137;48.834;8.732;2024-03-25T03:16:46;4.10;99.90
33831;DHT22;20137;48.834;8.732;2024-03-25T03:19:12;4.10;99.90
33831;DHT22;20137;48.834;8.732;2024-03-25T03:21:38;4.10;99.90
33831;DHT22;20137;48.834;8.732;2024-03-25T03:24:04;4.10;99.90
33831;DHT22;20137;48.834;8.732;2024-03-25T03:26:30;4.10;99.90
33831;DHT22;20137;48.834;8.732;2024-03-25T03:28:56;4.30;99.90
33831;DHT22;20137;48.834;8.732;2024-03-25T03:31:22;4.20;99.90
33831;DHT22;20137;48.834;8.732;2024-03-25T03:33:49;4.20;99.90
33831;DHT22;20137;48.834;8.732;2024-03-25T03:36:19;4.20;99.90
33831;DHT22;20137;48.834;8.732;2024-03-25T03:38:45;4.10;99.90
33831;DHT22;20137;48.834;8.732;2024-03-25T03:41:10;4.10;99.90
33831;DHT22;20137;48.834;8.732;2024-03-25T03:43:36;4.10;99.90
33831;DHT22;20137;48.834;8.732;2024-03-25T03:46:02;4.00;99.90
33831;DHT22;20137;48.834;8.732;2024-03-25T03:48:29;4.10;99.90
33831;DHT22;20137;48.834;8.732;2024-03-25T03:50:55;4.10;99.90
33831;DHT22;20137;48.834;8.732;2024-03-25T03:53:20;4.10;99.90
33831;DHT22;20137;48.834;8.732;2024-03-25T03:56:02;4.00;99.90
33831;DHT22;20137;48.834;8.732;2024-03-25T03:58:29;4.00;99.90
33831;DHT22;20137;48.834;8.732;2024-03-25T04:00:55;4.00;99.90
33831;DHT22;20137;48.834;8.732;2024-03-25T04:03:21;4.00;99.90
33831;DHT22;20137;48.834;8.732;2024-03-25T04:05:47;4.00;99.90
33831;DHT22;20137;48.834;8.732;2024-03-25T04:08:12;3.90;99.90
33831;DHT22;20137;48.834;8.732;2024-03-25T04:10:43;4.40;99.90
33831;DHT22;20137;48.834;8.732;2024-03-25T04:13:09;4.00;99.90
33831;DHT22;20137;48.834;8.732;2024-03-25T04:15:35;4.00;99.90
33831;DHT22;20137;48.834;8.732;2024-03-25T04:18:01;4.00;99.90
33831;DHT22;20137;48.834;8.732;2024-03-25T04:20:27;4.00;99.90
33831;DHT22;20137;48.834;8.732;2024-03-25T04:22:54;4.20;99.90
33831;DHT22;20137;48.834;8.732;2024-03-25T04:25:19;4.00;99.90
33831;DHT22;20137;48.834;8.732;2024-03-25T04:27:45;4.10;99.90
33831;DHT22;20137;48.834;8.732;2024-03-25T04:30:11;4.00;99.90
33831;DHT22;20137;48.834;8.732;2024-03-25T04:32:37;4.00;99.90
33831;DHT22;20137;48.834;8.732;2024-03-25T04:35:03;4.00;99.90
33831;DHT22;20137;48.834;8.732;2024-03-25T04:37:29;4.10;99.90
33831;DHT22;20137;48.834;8.732;2024-03-25T04:39:55;4.10;99.90
33831;DHT22;20137;48.834;8.732;2024-03-25T04:42:22;4.10;99.90
33831;DHT22;20137;48.834;8.732;2024-03-25T04:44:48;4.10;99.90
33831;DHT22;20137;48.834;8.732;2024-03-25T04:47:13;4.10;99.90
33831;DHT22;20137;48.834;8.732;2024-03-25T04:49:44;4.00;99.90
33831;DHT22;20137;48.834;8.732;2024-03-25T04:52:13;4.10;99.90
33831;DHT22;20137;48.834;8.732;2024-03-25T04:54:39;4.10;99.90
33831;DHT22;20137;48.834;8.732;2024-03-25T04:57:05;4.10;99.90
33831;DHT22;20137;48.834;8.732;2024-03-25T04:59:31;4.00;99.90
33831;DHT22;20137;48.834;8.732;2024-03-25T05:01:58;4.10;99.90
33831;DHT22;20137;48.834;8.732;2024-03-25T05:04:24;4.00;99.90
33831;DHT22;20137;48.834;8.732;2024-03-25T05:06:50;4.00;99.90
33831;DHT22;20137;48.834;8.732;2024-03-25T05:09:16;4.00;99.90
33831;DHT22;20137;48.834;8.732;2024-03-25T05:11:42;4.00;99.90
33831;DHT22;20137;48.834;8.732;2024-03-25T05:14:08;3.90;99.90
33831;DHT22;20137;48.834;8.732;2024-03-25T05:16:34;4.10;99.90
33831;DHT22;20137;48.834;8.732;2024-03-25T05:18:59;3.90;99.90
33831;DHT22;20137;48.834;8.732;2024-03-25T05:21:25;3.90;99.90
33831;DHT22;20137;48.834;8.732;2024-03-25T05:23:50;3.90;99.90
33831;DHT22;20137;48.834;8.732;2024-03-25T05:26:16;3.90;99.90
33831;DHT22;20137;48.834;8.732;2024-03-25T05:28:42;3.70;99.90
33831;DHT22;20137;48.834;8.732;2024-03-25T05:31:08;3.80;99.90
33831;DHT22;20137;48.834;8.732;2024-03-25T05:33:34;3.60;99.90
33831;DHT22;20137;48.834;8.732;2024-03-25T05:36:00;3.60;99.90
33831;DHT22;20137;48.834;8.732;2024-03-25T05:38:26;3.50;99.90
33831;DHT22;20137;48.834;8.732;2024-03-25T05:40:52;3.50;99.90
33831;DHT22;20137;48.834;8.732;2024-03-25T05:43:18;3.40;99.90
33831;DHT22;20137;48.834;8.732;2024-03-25T05:45:56;3.40;99.90
33831;DHT22;20137;48.834;8.732;2024-03-25T05:48:24;3.30;99.90
33831;DHT22;20137;48.834;8.732;2024-03-25T05:51:17;3.30;99.90
33831;DHT22;20137;48.834;8.732;2024-03-25T05:53:44;3.40;99.90
33831;DHT22;20137;48.834;8.732;2024-03-25T05:56:10;3.20;99.90
33831;DHT22;20137;48.834;8.732;2024-03-25T05:58:35;3.20;99.90
33831;DHT22;20137;48.834;8.732;2024-03-25T06:01:01;3.20;99.90
33831;DHT22;20137;48.834;8.732;2024-03-25T06:03:29;3.20;99.90
33831;DHT22;20137;48.834;8.732;2024-03-25T06:05:56;3.20;99.90
33831;DHT22;20137;48.834;8.732;2024-03-25T06:08:21;3.30;99.90
33831;DHT22;20137;48.834;8.732;2024-03-25T06:10:50;3.40;99.90
33831;DHT22;20137;48.834;8.732;2024-03-25T06:13:16;3.50;99.90
33831;DHT22;20137;48.834;8.732;2024-03-25T06:15:42;3.50;99.90
33831;DHT22;20137;48.834;8.732;2024-03-25T06:18:08;3.70;99.90
33831;DHT22;20137;48.834;8.732;2024-03-25T06:20:33;3.70;99.90
33831;DHT22;20137;48.834;8.732;2024-03-25T06:22:59;3.80;99.90
33831;DHT22;20137;48.834;8.732;2024-03-25T06:25:25;3.90;99.90
33831;DHT22;20137;48.834;8.732;2024-03-25T06:27:50;4.00;99.90
33831;DHT22;20137;48.834;8.732;2024-03-25T06:30:16;4.20;99.90
33831;DHT22;20137;48.834;8.732;2024-03-25T06:33:00;4.30;99.90
33831;DHT22;20137;48.834;8.732;2024-03-25T06:35:44;4.30;99.90
33831;DHT22;20137;48.834;8.732;2024-03-25T06:38:11;4.40;99.90
33831;DHT22;20137;48.834;8.732;2024-03-25T06:40:37;4.50;99.90
33831;DHT22;20137;48.834;8.732;2024-03-25T06:43:04;4.50;99.90
33831;DHT22;20137;48.834;8.732;2024-03-25T06:45:30;4.40;99.90
33831;DHT22;20137;48.834;8.732;2024-03-25T06:47:56;4.50;99.90
33831;DHT22;20137;48.834;8.732;2024-03-25T06:50:22;4.60;99.90
33831;DHT22;20137;48.834;8.732;2024-03-25T06:52:48;4.60;99.90
33831;DHT22;20137;48.834;8.732;2024-03-25T06:55:14;4.70;99.90
33831;DHT22;20137;48.834;8.732;2024-03-25T06:57:40;4.90;99.90
33831;DHT22;20137;48.834;8.732;2024-03-25T07:00:08;5.00;99.90
33831;DHT22;20137;48.834;8.732;2024-03-25T07:02:39;5.00;99.90
33831;DHT22;20137;48.834;8.732;2024-03-25T07:05:05;5.10;99.90
33831;DHT22;20137;48.834;8.732;2024-03-25T07:07:31;5.20;99.90
33831;DHT22;20137;48.834;8.732;2024-03-25T07:09:57;5.20;99.90
33831;DHT22;20137;48.834;8.732;2024-03-25T07:12:22;5.40;99.90
33831;DHT22;20137;48.834;8.732;2024-03-25T07:14:48;5.50;99.90
33831;DHT22;20137;48.834;8.732;2024-03-25T07:17:14;5.60;99.90
33831;DHT22;20137;48.834;8.732;2024-03-25T07:19:40;5.60;99.90
33831;DHT22;20137;48.834;8.732;2024-03-25T07:22:05;5.60;99.90
33831;DHT22;20137;48.834;8.732;2024-03-25T07:24:31;5.70;99.90
33831;DHT22;20137;48.834;8.732;2024-03-25T07:26:56;5.80;99.90
33831;DHT22;20137;48.834;8.732;2024-03-25T07:29:22;5.80;99.90
33831;DHT22;20137;48.834;8.732;2024-03-25T07:31:48;5.90;99.90
33831;DHT22;20137;48.834;8.732;2024-03-25T07:34:13;5.90;99.90
33831;DHT22;20137;48.834;8.732;2024-03-25T07:36:39;6.10;99.90
33831;DHT22;20137;48.834;8.732;2024-03-25T07:39:04;6.20;99.90
33831;DHT22;20137;48.834;8.732;2024-03-25T07:41:36;6.20;99.90
33831;DHT22;20137;48.834;8.732;2024-03-25T07:44:02;6.40;99.90
33831;DHT22;20137;48.834;8.732;2024-03-25T07:46:28;6.40;99.90
33831;DHT22;20137;48.834;8.732;2024-03-25T07:48:53;6.50;99.90
33831;DHT22;20137;48.834;8.732;2024-03-25T07:51:19;6.50;99.90
33831;DHT22;20137;48.834;8.732;2024-03-25T07:53:44;6.40;99.90
33831;DHT22;20137;48.834;8.732;2024-03-25T07:56:10;6.50;99.90
33831;DHT22;20137;48.834;8.732;2024-03-25T07:58:35;6.60;99.90
33831;DHT22;20137;48.834;8.732;2024-03-25T08:01:01;6.60;99.90
33831;DHT22;20137;48.834;8.732;2024-03-25T08:03:27;6.70;99.90
33831;DHT22;20137;48.834;8.732;2024-03-25T08:05:53;6.90;99.90
33831;DHT22;20137;48.834;8.732;2024-03-25T08:08:18;7.20;99.90
33831;DHT22;20137;48.834;8.732;2024-03-25T08:10:45;7.30;99.90
33831;DHT22;20137;48.834;8.732;2024-03-25T08:13:11;7.40;99.90
33831;DHT22;20137;48.834;8.732;2024-03-25T08:15:36;7.60;99.90
33831;DHT22;20137;48.834;8.732;2024-03-25T08:18:02;7.30;99.90
33831;DHT22;20137;48.834;8.732;2024-03-25T08:20:28;7.20;99.90
33831;DHT22;20137;48.834;8.732;2024-03-25T08:22:54;7.20;99.90
33831;DHT22;20137;48.834;8.732;2024-03-25T08:25:20;7.20;99.90
33831;DHT22;20137;48.834;8.732;2024-03-25T08:27:46;7.10;99.90
33831;DHT22;20137;48.834;8.732;2024-03-25T08:30:12;7.00;99.90
33831;DHT22;20137;48.834;8.732;2024-03-25T08:32:37;7.00;99.90
33831;DHT22;20137;48.834;8.732;2024-03-25T08:35:03;7.20;99.90
33831;DHT22;20137;48.834;8.732;2024-03-25T08:37:29;7.40;99.90
33831;DHT22;20137;48.834;8.732;2024-03-25T08:39:54;7.40;99.90
33831;DHT22;20137;48.834;8.732;2024-03-25T08:42:20;7.60;99.90
33831;DHT22;20137;48.834;8.732;2024-03-25T08:44:46;7.70;99.90
33831;DHT22;20137;48.834;8.732;2024-03-25T08:47:12;7.90;99.90
33831;DHT22;20137;48.834;8.732;2024-03-25T08:49:38;8.20;99.90
33831;DHT22;20137;48.834;8.732;2024-03-25T08:52:04;8.10;99.90
33831;DHT22;20137;48.834;8.732;2024-03-25T08:54:29;7.80;99.90
33831;DHT22;20137;48.834;8.732;2024-03-25T08:56:55;7.80;99.90
33831;DHT22;20137;48.834;8.732;2024-03-25T08:59:21;7.80;99.90
33831;DHT22;20137;48.834;8.732;2024-03-25T09:01:46;7.60;99.90
33831;DHT22;20137;48.834;8.732;2024-03-25T09:04:12;7.40;99.90
33831;DHT22;20137;48.834;8.732;2024-03-25T09:06:39;7.20;99.90
33831;DHT22;20137;48.834;8.732;2024-03-25T09:09:04;7.10;99.90
33831;DHT22;20137;48.834;8.732;2024-03-25T09:11:49;7.00;99.90
33831;DHT22;20137;48.834;8.732;2024-03-25T09:14:14;7.00;99.90
33831;DHT22;20137;48.834;8.732;2024-03-25T09:16:40;6.90;99.90
33831;DHT22;20137;48.834;8.732;2024-03-25T09:19:06;6.90;99.90
33831;DHT22;20137;48.834;8.732;2024-03-25T09:21:31;6.90;99.90
33831;DHT22;20137;48.834;8.732;2024-03-25T09:23:57;7.10;99.90
33831;DHT22;20137;48.834;8.732;2024-03-25T09:26:23;7.20;99.90
33831;DHT22;20137;48.834;8.732;2024-03-25T09:28:49;7.00;99.90
33831;DHT22;20137;48.834;8.732;2024-03-25T09:31:15;7.10;99.90
33831;DHT22;20137;48.834;8.732;2024-03-25T09:33:41;7.20;99.90
33831;DHT22;20137;48.834;8.732;2024-03-25T09:36:07;7.20;99.90
33831;DHT22;20137;48.834;8.732;2024-03-25T09:38:32;7.30;99.90
33831;DHT22;20137;48.834;8.732;2024-03-25T09:40:58;7.40;99.90
33831;DHT22;20137;48.834;8.732;2024-03-25T09:43:27;7.60;99.90
33831;DHT22;20137;48.834;8.732;2024-03-25T09:45:56;7.60;99.90
33831;DHT22;20137;48.834;8.732;2024-03-25T09:48:24;7.60;99.90
33831;DHT22;20137;48.834;8.732;2024-03-25T09:50:50;7.70;99.90
33831;DHT22;20137;48.834;8.732;2024-03-25T09:53:18;7.80;99.90
33831;DHT22;20137;48.834;8.732;2024-03-25T09:55:46;7.90;99.90
33831;DHT22;20137;48.834;8.732;2024-03-25T09:58:14;8.10;99.90
33831;DHT22;20137;48.834;8.732;2024-03-25T10:00:39;8.30;99.90
33831;DHT22;20137;48.834;8.732;2024-03-25T10:03:05;8.30;99.90
33831;DHT22;20137;48.834;8.732;2024-03-25T10:05:32;8.40;99.90
33831;DHT22;20137;48.834;8.732;2024-03-25T10:07:58;8.40;99.90
33831;DHT22;20137;48.834;8.732;2024-03-25T10:10:24;8.40;99.90
33831;DHT22;20137;48.834;8.732;2024-03-25T10:12:49;8.40;99.90
33831;DHT22;20137;48.834;8.732;2024-03-25T10:15:16;8.70;99.90
33831;DHT22;20137;48.834;8.732;2024-03-25T10:17:43;8.70;99.90
33831;DHT22;20137;48.834;8.732;2024-03-25T10:20:18;8.80;99.90
33831;DHT22;20137;48.834;8.732;2024-03-25T10:22:45;8.90;99.90
33831;DHT22;20137;48.834;8.732;2024-03-25T10:25:25;8.90;99.50
33831;DHT22;20137;48.834;8.732;2024-03-25T10:27:58;8.90;99.50
33831;DHT22;20137;48.834;8.732;2024-03-25T10:30:25;8.70;99.90
33831;DHT22;20137;48.834;8.732;2024-03-25T10:33:04;9.00;99.90
33831;DHT22;20137;48.834;8.732;2024-03-25T10:35:32;9.20;99.20
33831;DHT22;20137;48.834;8.732;2024-03-25T10:38:04;9.50;99.20
33831;DHT22;20137;48.834;8.732;2024-03-25T10:40:32;9.90;99.70
33831;DHT22;20137;48.834;8.732;2024-03-25T10:43:03;10.10;99.20
33831;DHT22;20137;48.834;8.732;2024-03-25T10:45:30;10.30;99.10
33831;DHT22;20137;48.834;8.732;2024-03-25T10:47:58;10.40;99.00
33831;DHT22;20137;48.834;8.732;2024-03-25T10:50:29;10.50;99.50
33831;DHT22;20137;48.834;8.732;2024-03-25T10:52:57;10.20;96.90
33831;DHT22;20137;48.834;8.732;2024-03-25T10:55:24;9.80;97.50
33831;DHT22;20137;48.834;8.732;2024-03-25T10:57:52;9.90;98.80
33831;DHT22;20137;48.834;8.732;2024-03-25T11:00:19;9.90;99.50
33831;DHT22;20137;48.834;8.732;2024-03-25T11:02:47;10.00;99.60
33831;DHT22;20137;48.834;8.732;2024-03-25T11:05:13;10.20;98.60
33831;DHT22;20137;48.834;8.732;2024-03-25T11:07:40;9.80;97.80
33831;DHT22;20137;48.834;8.732;2024-03-25T11:10:08;10.00;98.40
33831;DHT22;20137;48.834;8.732;2024-03-25T11:12:40;10.20;97.90
33831;DHT22;20137;48.834;8.732;2024-03-25T11:15:06;10.20;98.90
33831;DHT22;20137;48.834;8.732;2024-03-25T11:17:36;10.10;97.80
33831;DHT22;20137;48.834;8.732;2024-03-25T11:20:12;10.00;97.10
33831;DHT22;20137;48.834;8.732;2024-03-25T11:22:50;9.80;98.10
33831;DHT22;20137;48.834;8.732;2024-03-25T11:25:16;9.90;98.90
33831;DHT22;20137;48.834;8.732;2024-03-25T11:27:46;10.30;98.10
33831;DHT22;20137;48.834;8.732;2024-03-25T11:30:14;10.30;95.80
33831;DHT22;20137;48.834;8.732;2024-03-25T11:32:54;10.40;96.50
33831;DHT22;20137;48.834;8.732;2024-03-25T11:35:20;10.70;97.40
33831;DHT22;20137;48.834;8.732;2024-03-25T11:37:46;10.80;95.10
33831;DHT22;20137;48.834;8.732;2024-03-25T11:40:13;10.40;94.90
33831;DHT22;20137;48.834;8.732;2024-03-25T11:42:43;9.90;95.50
33831;DHT22;20137;48.834;8.732;2024-03-25T11:45:16;10.20;97.10
33831;DHT22;20137;48.834;8.732;2024-03-25T11:47:43;10.20;97.10
33831;DHT22;20137;48.834;8.732;2024-03-25T11:50:13;10.10;96.50
33831;DHT22;20137;48.834;8.732;2024-03-25T11:52:40;10.40;99.00
33831;DHT22;20137;48.834;8.732;2024-03-25T11:55:06;11.10;99.00
33831;DHT22;20137;48.834;8.732;2024-03-25T11:57:36;11.10;96.20
33831;DHT22;20137;48.834;8.732;2024-03-25T12:00:03;11.20;96.50
33831;DHT22;20137;48.834;8.732;2024-03-25T12:02:32;11.00;95.70
33831;DHT22;20137;48.834;8.732;2024-03-25T12:04:58;10.80;95.90
33831;DHT22;20137;48.834;8.732;2024-03-25T12:07:24;10.90;97.20
33831;DHT22;20137;48.834;8.732;2024-03-25T12:09:50;10.90;95.90
33831;DHT22;20137;48.834;8.732;2024-03-25T12:12:34;10.90;96.40
33831;DHT22;20137;48.834;8.732;2024-03-25T12:15:05;10.70;96.00
33831;DHT22;20137;48.834;8.732;2024-03-25T12:17:33;10.40;95.10
33831;DHT22;20137;48.834;8.732;2024-03-25T12:20:03;10.40;96.90
33831;DHT22;20137;48.834;8.732;2024-03-25T12:22:30;10.70;96.00
33831;DHT22;20137;48.834;8.732;2024-03-25T12:25:01;10.80;95.70
33831;DHT22;20137;48.834;8.732;2024-03-25T12:27:28;11.10;98.00
33831;DHT22;20137;48.834;8.732;2024-03-25T12:32:41;10.90;93.50
33831;DHT22;20137;48.834;8.732;2024-03-25T12:35:08;11.00;94.30
33831;DHT22;20137;48.834;8.732;2024-03-25T12:37:39;10.60;94.90
33831;DHT22;20137;48.834;8.732;2024-03-25T12:40:07;10.40;95.80
33831;DHT22;20137;48.834;8.732;2024-03-25T12:42:34;10.90;96.50
33831;DHT22;20137;48.834;8.732;2024-03-25T12:45:00;11.30;97.50
33831;DHT22;20137;48.834;8.732;2024-03-25T12:47:26;11.50;95.10
33831;DHT22;20137;48.834;8.732;2024-03-25T12:49:51;11.40;94.50
33831;DHT22;20137;48.834;8.732;2024-03-25T12:52:17;10.90;95.70
33831;DHT22;20137;48.834;8.732;2024-03-25T12:54:43;10.60;95.70
33831;DHT22;20137;48.834;8.732;2024-03-25T12:57:09;10.40;96.50
33831;DHT22;20137;48.834;8.732;2024-03-25T12:59:35;10.60;96.70
33831;DHT22;20137;48.834;8.732;2024-03-25T13:02:01;10.50;95.30
33831;DHT22;20137;48.834;8.732;2024-03-25T13:04:27;10.00;96.50
33831;DHT22;20137;48.834;8.732;2024-03-25T13:06:53;10.10;97.10
33831;DHT22;20137;48.834;8.732;2024-03-25T13:09:19;10.10;97.50
33831;DHT22;20137;48.834;8.732;2024-03-25T13:11:45;10.20;96.20
33831;DHT22;20137;48.834;8.732;2024-03-25T13:14:12;10.40;96.00
33831;DHT22;20137;48.834;8.732;2024-03-25T13:16:38;10.50;96.70
33831;DHT22;20137;48.834;8.732;2024-03-25T13:19:04;10.80;97.70
33831;DHT22;20137;48.834;8.732;2024-03-25T13:21:30;10.90;97.10
33831;DHT22;20137;48.834;8.732;2024-03-25T13:23:56;11.10;97.10
33831;DHT22;20137;48.834;8.732;2024-03-25T13:26:22;11.20;97.10
33831;DHT22;20137;48.834;8.732;2024-03-25T13:28:47;11.20;96.40
33831;DHT22;20137;48.834;8.732;2024-03-25T13:31:13;10.90;94.90
33831;DHT22;20137;48.834;8.732;2024-03-25T13:33:39;10.90;96.00
33831;DHT22;20137;48.834;8.732;2024-03-25T13:36:06;10.90;95.30
33831;DHT22;20137;48.834;8.732;2024-03-25T13:38:32;10.80;95.60
33831;DHT22;20137;48.834;8.732;2024-03-25T13:41:00;10.80;94.90
33831;DHT22;20137;48.834;8.732;2024-03-25T13:43:26;10.50;95.70
33831;DHT22;20137;48.834;8.732;2024-03-25T13:45:52;10.40;96.40
33831;DHT22;20137;48.834;8.732;2024-03-25T13:48:18;10.30;96.40
33831;DHT22;20137;48.834;8.732;2024-03-25T13:50:43;10.20;96.70
33831;DHT22;20137;48.834;8.732;2024-03-25T13:53:09;10.40;97.10
33831;DHT22;20137;48.834;8.732;2024-03-25T13:55:36;10.40;95.80
33831;DHT22;20137;48.834;8.732;2024-03-25T13:58:01;10.40;97.00
33831;DHT22;20137;48.834;8.732;2024-03-25T14:00:27;10.50;96.70
33831;DHT22;20137;48.834;8.732;2024-03-25T14:02:54;10.60;95.40
33831;DHT22;20137;48.834;8.732;2024-03-25T14:05:21;10.50;95.70
33831;DHT22;20137;48.834;8.732;2024-03-25T14:07:49;10.70;96.00
33831;DHT22;20137;48.834;8.732;2024-03-25T14:10:15;10.70;95.90
33831;DHT22;20137;48.834;8.732;2024-03-25T14:12:41;10.40;96.40
33831;DHT22;20137;48.834;8.732;2024-03-25T14:15:07;10.50;96.20
33831;DHT22;20137;48.834;8.732;2024-03-25T14:17:33;10.50;95.90
33831;DHT22;20137;48.834;8.732;2024-03-25T14:19:59;10.50;95.70
33831;DHT22;20137;48.834;8.732;2024-03-25T14:22:24;10.30;95.40
33831;DHT22;20137;48.834;8.732;2024-03-25T14:24:50;10.20;95.40
33831;DHT22;20137;48.834;8.732;2024-03-25T14:27:22;10.10;96.00
33831;DHT22;20137;48.834;8.732;2024-03-25T14:29:47;10.30;97.00
33831;DHT22;20137;48.834;8.732;2024-03-25T14:32:13;10.40;96.90
33831;DHT22;20137;48.834;8.732;2024-03-25T14:34:41;10.30;95.60
33831;DHT22;20137;48.834;8.732;2024-03-25T14:37:07;10.30;96.50
33831;DHT22;20137;48.834;8.732;2024-03-25T14:39:33;10.20;96.10
33831;DHT22;20137;48.834;8.732;2024-03-25T14:41:58;10.10;95.80
33831;DHT22;20137;48.834;8.732;2024-03-25T14:44:24;10.20;97.30
33831;DHT22;20137;48.834;8.732;2024-03-25T14:46:50;10.30;96.40
33831;DHT22;20137;48.834;8.732;2024-03-25T14:49:15;10.40;95.40
33831;DHT22;20137;48.834;8.732;2024-03-25T14:51:41;10.50;95.90
33831;DHT22;20137;48.834;8.732;2024-03-25T14:54:07;10.40;95.00
33831;DHT22;20137;48.834;8.732;2024-03-25T14:56:33;10.50;96.20
33831;DHT22;20137;48.834;8.732;2024-03-25T14:58:58;10.40;94.40
33831;DHT22;20137;48.834;8.732;2024-03-25T15:01:24;10.50;95.00
33831;DHT22;20137;48.834;8.732;2024-03-25T15:03:50;10.50;93.90
33831;DHT22;20137;48.834;8.732;2024-03-25T15:06:16;10.40;93.20
33831;DHT22;20137;48.834;8.732;2024-03-25T15:08:42;10.50;94.00
33831;DHT22;20137;48.834;8.732;2024-03-25T15:11:09;10.70;95.10
33831;DHT22;20137;48.834;8.732;2024-03-25T15:13:35;10.60;95.20
33831;DHT22;20137;48.834;8.732;2024-03-25T15:16:04;10.60;93.60
33831;DHT22;20137;48.834;8.732;2024-03-25T15:18:30;10.70;93.80
33831;DHT22;20137;48.834;8.732;2024-03-25T15:21:05;10.70;93.40
33831;DHT22;20137;48.834;8.732;2024-03-25T15:23:31;10.50;92.80
33831;DHT22;20137;48.834;8.732;2024-03-25T15:25:58;10.60;94.20
33831;DHT22;20137;48.834;8.732;2024-03-25T15:28:24;10.60;93.30
33831;DHT22;20137;48.834;8.732;2024-03-25T15:30:51;10.50;93.40
33831;DHT22;20137;48.834;8.732;2024-03-25T15:33:17;10.50;94.30
33831;DHT22;20137;48.834;8.732;2024-03-25T15:35:43;10.60;93.90
33831;DHT22;20137;48.834;8.732;2024-03-25T15:38:09;10.60;93.30
33831;DHT22;20137;48.834;8.732;2024-03-25T15:40:36;10.60;94.30
33831;DHT22;20137;48.834;8.732;2024-03-25T15:43:02;10.60;93.90